CYYJ/YYJ METAR and TAF weather

Enter ICAO airport designator
Station Type Date Time Source
CYYJ METAR 2023/01/30 10:00 UTC NOAA

CYYJ 301000Z 27005KT 30SM SKC M03/M06 A3048 RMK SLP324


Station Type Date Time Source
CYYJ Decoded METAR 2023/01/30 10:00 UTC NOAA

Victoria Int. Airport, B. C., Canada (CYYJ) 48-39N 123-26W 19M
Jan 30, 2023 - 05:00 AM EST / 2023.01.30 1000 UTC
Wind: from the W (270 degrees) at 6 MPH (5 KT):0
Visibility: 30 mile(s):0
Sky conditions: clear
Temperature: 26 F (-3 C)
Windchill: 19 F (-7 C):1
Dew Point: 21 F (-6 C)
Relative Humidity: 79%
Pressure (altimeter): 30.48 in. Hg (1032 hPa)
ob: CYYJ 301000Z 27005KT 30SM SKC M03/M06 A3048 RMK SLP324
cycle: 10

Station Type Date Time Source
CYYJ TAF 2023/01/30 06:42 UTC NOAA

TAF TAF CYYJ 300540Z 3006/3106 VRB03KT P6SM SKC
FM301500 29005KT P6SM FEW015 FEW200
FM301800 28005KT P6SM FEW030 SCT120
FM302200 12007KT P6SM SCT015 BKN025 OVC120
RMK NXT FCST BY 301200Z

Example: see airport list